createdAt,value
2018-06-22T00:00:43.035Z,44.10
2018-06-22T00:03:12.172Z,43.50
2018-06-22T00:05:41.311Z,43.50
2018-06-22T00:08:10.467Z,43.50
2018-06-22T00:10:39.837Z,43.50
2018-06-22T00:13:08.992Z,43.50
2018-06-22T00:15:38.095Z,43.60
2018-06-22T00:18:07.172Z,43.50
2018-06-22T00:20:36.454Z,43.60
2018-06-22T00:23:05.672Z,43.50
2018-06-22T00:25:34.809Z,44.20
2018-06-22T00:28:06.527Z,43.50
2018-06-22T00:30:35.761Z,43.50
2018-06-22T00:33:04.966Z,43.50
2018-06-22T00:35:34.088Z,43.50
2018-06-22T00:38:03.367Z,43.60
2018-06-22T00:40:32.428Z,43.50
2018-06-22T00:43:01.543Z,43.60
2018-06-22T00:45:30.914Z,43.60
2018-06-22T00:48:00.079Z,43.60
2018-06-22T00:50:29.232Z,43.60
2018-06-22T00:52:58.495Z,43.60
2018-06-22T00:55:27.579Z,43.60
2018-06-22T00:57:56.649Z,43.60
2018-06-22T01:00:25.724Z,43.60
2018-06-22T01:02:54.962Z,43.60
2018-06-22T01:05:24.154Z,43.50
2018-06-22T01:07:53.154Z,43.60
2018-06-22T01:10:22.309Z,43.50
2018-06-22T01:12:51.559Z,43.60
2018-06-22T01:15:20.655Z,43.50
2018-06-22T01:17:49.878Z,43.70
2018-06-22T01:20:19.026Z,43.60
2018-06-22T01:22:48.006Z,43.60
2018-06-22T01:25:17.186Z,43.60
2018-06-22T01:27:46.370Z,43.50
2018-06-22T01:30:15.599Z,43.60
2018-06-22T01:32:44.795Z,43.60
2018-06-22T01:35:13.811Z,43.60
2018-06-22T01:37:42.862Z,43.50
2018-06-22T01:40:12.020Z,43.60
2018-06-22T01:42:41.262Z,43.60
2018-06-22T01:45:10.458Z,43.50
2018-06-22T01:47:39.655Z,43.70
2018-06-22T01:50:08.874Z,43.50
2018-06-22T01:52:38.239Z,43.60
2018-06-22T01:55:07.465Z,43.60
2018-06-22T01:57:36.549Z,43.60
2018-06-22T02:00:05.683Z,43.60
2018-06-22T02:02:34.800Z,43.60
2018-06-22T02:05:03.891Z,43.50
2018-06-22T02:07:33.021Z,43.50
2018-06-22T02:10:02.086Z,43.60
2018-06-22T02:12:31.140Z,43.60
2018-06-22T02:15:00.513Z,43.60
2018-06-22T02:17:29.749Z,43.60
2018-06-22T02:19:58.849Z,43.60
2018-06-22T02:22:28.040Z,43.60
2018-06-22T02:24:57.329Z,43.60
2018-06-22T02:27:26.698Z,43.60
2018-06-22T02:29:55.942Z,43.60
2018-06-22T02:32:25.174Z,43.60
2018-06-22T02:34:55.250Z,43.60
2018-06-22T02:37:24.393Z,43.60
2018-06-22T02:39:53.545Z,44.20
2018-06-22T02:42:22.694Z,43.60
2018-06-22T02:44:51.984Z,43.60
2018-06-22T02:47:21.164Z,43.60
2018-06-22T02:49:50.339Z,43.70
2018-06-22T02:52:19.573Z,43.60
2018-06-22T02:54:48.746Z,43.60
2018-06-22T02:57:17.778Z,43.60
2018-06-22T02:59:47.059Z,43.60
2018-06-22T03:02:16.006Z,43.60
2018-06-22T03:04:45.179Z,43.70
2018-06-22T03:07:14.353Z,43.60
2018-06-22T03:09:43.409Z,43.70
2018-06-22T03:12:12.394Z,43.70
2018-06-22T03:14:41.603Z,43.70
2018-06-22T03:17:10.735Z,43.70
2018-06-22T03:19:40.915Z,43.70
2018-06-22T03:22:10.026Z,43.60
2018-06-22T03:24:39.178Z,43.70
2018-06-22T03:27:08.187Z,43.60
2018-06-22T03:29:37.316Z,43.70
2018-06-22T03:32:06.683Z,43.60
2018-06-22T03:34:35.840Z,43.60
2018-06-22T03:37:05.087Z,43.70
2018-06-22T03:39:34.251Z,43.60
2018-06-22T03:42:03.311Z,43.60
2018-06-22T03:44:32.675Z,43.60
2018-06-22T03:47:01.759Z,43.60
2018-06-22T03:49:30.873Z,43.70
2018-06-22T03:51:59.926Z,43.60
2018-06-22T03:54:28.945Z,43.70
2018-06-22T03:56:57.925Z,43.60
2018-06-22T03:59:26.932Z,43.60
2018-06-22T04:01:55.819Z,43.70
2018-06-22T04:04:24.860Z,43.70
2018-06-22T04:06:53.917Z,43.60
2018-06-22T04:09:22.964Z,43.60
2018-06-22T04:11:52.389Z,43.60
2018-06-22T04:14:21.437Z,43.60
2018-06-22T04:16:50.545Z,43.60
2018-06-22T04:19:19.855Z,43.60
2018-06-22T04:21:49.022Z,43.50
2018-06-22T04:24:19.019Z,43.60
2018-06-22T04:26:48.479Z,43.60
2018-06-22T04:29:19.050Z,43.60
2018-06-22T04:31:48.264Z,43.60
2018-06-22T04:34:17.470Z,43.60
2018-06-22T04:36:46.581Z,43.60
2018-06-22T04:39:15.706Z,43.60
2018-06-22T04:41:44.826Z,43.60
2018-06-22T04:44:13.988Z,43.60
2018-06-22T04:46:43.183Z,43.60
2018-06-22T04:49:12.215Z,43.60
2018-06-22T04:51:41.377Z,43.50
2018-06-22T04:54:10.492Z,43.50
2018-06-22T04:56:39.515Z,43.50
2018-06-22T04:59:08.773Z,43.40
2018-06-22T05:01:38.007Z,43.30
2018-06-22T05:04:07.247Z,43.40
2018-06-22T06:07:38.059Z,53.60
2018-06-22T06:10:07.609Z,53.60
2018-06-22T06:12:38.219Z,52.90
2018-06-22T06:15:12.739Z,50.70
2018-06-22T06:17:50.917Z,51.40
2018-06-22T06:20:21.101Z,51.50
2018-06-22T06:22:50.672Z,49.50
2018-06-22T06:25:20.364Z,51.00
2018-06-22T06:27:49.512Z,52.20
2018-06-22T06:30:18.646Z,52.70
2018-06-22T06:32:47.754Z,52.40
2018-06-22T06:35:16.822Z,52.40
2018-06-22T06:37:45.967Z,52.70
2018-06-22T06:40:15.152Z,52.70
2018-06-22T06:42:44.322Z,53.00
2018-06-22T06:45:13.350Z,52.30
2018-06-22T06:47:42.471Z,51.90
2018-06-22T06:50:11.499Z,50.60
2018-06-22T06:52:40.576Z,50.40
2018-06-22T06:55:09.680Z,50.60
2018-06-22T06:57:38.728Z,50.40
2018-06-22T07:00:08.333Z,50.10
2018-06-22T07:02:37.494Z,49.60
2018-06-22T07:05:06.651Z,49.20
2018-06-22T07:07:35.824Z,49.20
2018-06-22T07:10:06.536Z,49.40
2018-06-22T07:12:35.723Z,49.40
2018-06-22T07:15:04.872Z,49.90
2018-06-22T07:17:33.916Z,49.50
2018-06-22T07:20:03.146Z,49.60
2018-06-22T07:22:32.204Z,50.30
2018-06-22T07:25:01.383Z,49.60
2018-06-22T07:27:30.560Z,50.00
2018-06-22T07:29:59.590Z,49.40
2018-06-22T07:32:28.776Z,49.30
2018-06-22T07:34:57.758Z,48.70
2018-06-22T07:37:26.958Z,47.90
2018-06-22T07:39:56.095Z,46.90
2018-06-22T07:42:25.268Z,46.40
2018-06-22T07:44:54.465Z,46.10
2018-06-22T07:47:24.279Z,46.00
2018-06-22T07:49:53.484Z,45.80
2018-06-22T07:52:22.725Z,45.80
2018-06-22T07:54:51.783Z,45.70
2018-06-22T07:57:20.854Z,45.60
2018-06-22T07:59:49.921Z,45.30
2018-06-22T08:02:19.060Z,44.80
2018-06-22T08:04:49.293Z,44.90
2018-06-22T08:07:18.305Z,45.10
2018-06-22T08:09:47.392Z,44.90
2018-06-22T08:12:16.505Z,44.60
2018-06-22T08:14:45.628Z,44.20
2018-06-22T08:17:14.884Z,44.00
2018-06-22T08:19:43.870Z,44.00
2018-06-22T08:22:14.716Z,44.00
2018-06-22T08:27:23.722Z,43.80
2018-06-22T08:29:53.163Z,44.00
2018-06-22T08:32:22.602Z,43.40
2018-06-22T08:34:52.122Z,43.10
2018-06-22T08:37:21.524Z,43.20
2018-06-22T08:39:50.853Z,43.20
2018-06-22T08:42:20.242Z,42.30
2018-06-22T08:44:49.405Z,42.00
2018-06-22T08:47:18.705Z,42.10
2018-06-22T08:49:47.743Z,42.20
2018-06-22T08:52:16.973Z,42.30
2018-06-22T08:54:46.117Z,41.50
2018-06-22T08:57:15.240Z,41.30
2018-06-22T08:59:44.420Z,40.50
2018-06-22T09:02:13.568Z,41.10
2018-06-22T09:05:00.465Z,40.90
2018-06-22T09:07:29.745Z,41.20
2018-06-22T09:09:58.929Z,40.50
2018-06-22T09:12:28.053Z,40.30
2018-06-22T09:14:57.112Z,40.00
2018-06-22T09:17:26.243Z,40.40
2018-06-22T09:19:55.404Z,39.90
2018-06-22T09:22:24.506Z,39.90
2018-06-22T09:24:53.600Z,40.30
2018-06-22T09:27:22.796Z,40.10
2018-06-22T09:29:51.845Z,39.10
2018-06-22T09:32:20.929Z,39.20
2018-06-22T09:34:50.054Z,39.20
2018-06-22T09:37:19.213Z,39.40
2018-06-22T09:39:48.230Z,38.90
2018-06-22T09:42:17.307Z,38.50
2018-06-22T09:44:46.493Z,38.00
2018-06-22T09:47:15.590Z,38.60
2018-06-22T09:49:44.766Z,37.80
2018-06-22T09:52:13.873Z,38.20
2018-06-22T09:54:43.000Z,39.00
2018-06-22T09:57:12.139Z,39.10
2018-06-22T09:59:41.251Z,38.50
2018-06-22T10:02:10.424Z,38.50
2018-06-22T10:04:40.571Z,38.30
2018-06-22T10:07:09.731Z,38.10
2018-06-22T10:09:39.001Z,37.50
2018-06-22T10:12:08.116Z,37.40
2018-06-22T10:14:37.319Z,38.00
2018-06-22T10:17:06.412Z,38.10
2018-06-22T10:19:35.427Z,37.90
2018-06-22T10:22:04.602Z,38.00
2018-06-22T10:24:33.737Z,37.40
2018-06-22T10:27:02.869Z,37.40
2018-06-22T10:29:31.997Z,37.60
2018-06-22T10:32:01.090Z,37.90
2018-06-22T10:34:30.319Z,38.00
2018-06-22T10:36:59.430Z,38.50
2018-06-22T10:39:28.490Z,38.50
2018-06-22T10:41:57.628Z,38.20
2018-06-22T10:44:26.716Z,38.20
2018-06-22T10:46:55.994Z,37.80
2018-06-22T10:49:25.122Z,37.30
2018-06-22T10:51:54.364Z,37.40
2018-06-22T10:54:23.542Z,37.60
2018-06-22T10:56:52.608Z,37.80
2018-06-22T10:59:21.707Z,37.60
2018-06-22T11:01:50.833Z,37.30
2018-06-22T11:04:19.996Z,36.90
2018-06-22T11:06:49.136Z,36.70
2018-06-22T11:09:18.277Z,37.00
2018-06-22T11:11:47.412Z,36.40
2018-06-22T11:14:16.530Z,36.10
2018-06-22T11:16:45.591Z,36.30
2018-06-22T11:19:14.875Z,36.10
2018-06-22T11:21:43.958Z,36.80
2018-06-22T11:24:13.019Z,36.90
2018-06-22T11:26:42.148Z,36.70
2018-06-22T11:29:11.215Z,37.20
2018-06-22T11:31:40.444Z,36.10
2018-06-22T11:34:09.668Z,35.50
2018-06-22T11:36:38.847Z,36.20
2018-06-22T11:39:10.060Z,35.70
2018-06-22T11:41:40.249Z,35.80
2018-06-22T11:44:09.972Z,34.60
2018-06-22T11:46:39.810Z,35.90
2018-06-22T11:49:09.083Z,37.40
2018-06-22T11:51:38.148Z,37.60
2018-06-22T11:54:07.281Z,37.60
2018-06-22T11:56:36.311Z,38.20
2018-06-22T11:59:05.359Z,38.60
2018-06-22T12:01:34.525Z,38.70
2018-06-22T12:04:03.987Z,39.00
2018-06-22T12:06:33.093Z,38.70
2018-06-22T12:09:02.377Z,38.70
2018-06-22T12:11:31.418Z,38.90
2018-06-22T12:14:00.456Z,38.10
2018-06-22T12:16:29.567Z,37.80
2018-06-22T12:18:58.713Z,37.60
2018-06-22T12:21:27.999Z,37.50
2018-06-22T12:23:57.295Z,38.00
2018-06-22T12:26:26.460Z,40.00
2018-06-22T12:28:55.536Z,39.50
2018-06-22T12:31:24.702Z,39.60
2018-06-22T12:33:53.789Z,38.30
2018-06-22T12:36:23.097Z,38.10
2018-06-22T12:38:52.348Z,38.60
2018-06-22T12:41:21.959Z,38.60
2018-06-22T12:43:51.823Z,38.00
2018-06-22T12:46:21.045Z,37.70
2018-06-22T12:48:50.166Z,37.50
2018-06-22T12:51:19.401Z,38.10
2018-06-22T12:53:48.441Z,38.50
2018-06-22T12:56:17.549Z,37.50
2018-06-22T12:58:46.705Z,37.70
2018-06-22T13:01:15.948Z,37.40
2018-06-22T13:03:45.132Z,37.60
2018-06-22T13:06:14.238Z,36.30
2018-06-22T13:08:43.528Z,35.90
2018-06-22T13:11:12.773Z,36.10
2018-06-22T13:13:41.826Z,37.40
2018-06-22T13:16:11.521Z,36.80
2018-06-22T13:18:40.762Z,37.80
2018-06-22T13:21:09.900Z,36.70
2018-06-22T13:23:38.973Z,36.80
2018-06-22T13:26:08.169Z,36.70
2018-06-22T13:28:37.353Z,36.50
2018-06-22T13:31:06.679Z,37.10
2018-06-22T13:33:35.789Z,37.30
2018-06-22T13:36:04.893Z,37.20
2018-06-22T13:38:34.082Z,36.90
2018-06-22T13:41:03.170Z,37.30
2018-06-22T13:43:32.258Z,36.20
2018-06-22T13:46:01.417Z,36.30
2018-06-22T13:48:30.716Z,36.90
2018-06-22T13:50:59.894Z,37.30
2018-06-22T13:53:29.326Z,37.10
2018-06-22T13:55:59.174Z,36.60
2018-06-22T13:58:28.358Z,36.40
2018-06-22T14:00:57.495Z,36.50
2018-06-22T14:03:26.553Z,36.20
2018-06-22T14:05:59.826Z,36.00
2018-06-22T14:08:28.936Z,35.80
2018-06-22T14:10:58.132Z,37.20
2018-06-22T14:13:27.333Z,36.40
2018-06-22T14:15:56.570Z,36.30
2018-06-22T14:18:25.910Z,35.40
2018-06-22T14:20:55.211Z,35.40
2018-06-22T14:23:24.334Z,35.40
2018-06-22T14:25:53.457Z,36.00
2018-06-22T14:28:22.757Z,35.10
2018-06-22T14:30:51.975Z,35.50
2018-06-22T14:33:21.037Z,35.10
2018-06-22T14:35:50.388Z,34.80
2018-06-22T14:38:19.460Z,35.10
2018-06-22T14:40:48.492Z,34.90
2018-06-22T14:43:17.616Z,34.80
2018-06-22T14:45:46.667Z,34.80
2018-06-22T14:48:16.781Z,34.80
2018-06-22T14:50:45.878Z,35.50
2018-06-22T14:53:19.723Z,35.10
2018-06-22T14:55:53.125Z,35.20
2018-06-22T14:58:26.712Z,35.60
2018-06-22T15:00:59.974Z,35.50
2018-06-22T15:03:33.178Z,35.70
2018-06-22T15:06:06.475Z,35.90
2018-06-22T15:08:35.569Z,35.90
2018-06-22T15:11:04.784Z,35.80
2018-06-22T15:13:33.903Z,35.80
2018-06-22T15:16:03.428Z,35.90
2018-06-22T15:18:32.722Z,35.70
2018-06-22T15:21:02.976Z,35.90
2018-06-22T15:23:32.123Z,36.10
2018-06-22T15:26:01.215Z,35.80
2018-06-22T15:28:30.388Z,35.20
2018-06-22T15:30:59.468Z,35.50
2018-06-22T15:33:32.586Z,35.50
2018-06-22T15:36:05.872Z,35.30
2018-06-22T15:38:39.410Z,35.60
2018-06-22T15:41:12.732Z,35.60
2018-06-22T15:43:46.023Z,35.70
2018-06-22T15:46:20.312Z,36.50
2018-06-22T15:48:53.810Z,36.40
2018-06-22T15:51:27.018Z,36.40
2018-06-22T15:54:00.464Z,36.30
2018-06-22T15:56:29.604Z,36.50
2018-06-22T15:58:58.674Z,36.40
2018-06-22T16:01:27.761Z,36.50
2018-06-22T16:03:58.178Z,36.60
2018-06-22T16:06:28.217Z,36.70
2018-06-22T16:08:57.451Z,36.70
2018-06-22T16:11:28.783Z,36.90
2018-06-22T16:14:01.946Z,36.90
2018-06-22T16:16:35.317Z,36.90
2018-06-22T16:19:08.581Z,36.90
2018-06-22T16:21:41.885Z,37.30
2018-06-22T16:24:15.103Z,37.60
2018-06-22T16:26:48.377Z,38.00
2018-06-22T16:29:17.562Z,39.00
2018-06-22T16:31:46.777Z,38.10
2018-06-22T16:34:15.882Z,38.40
2018-06-22T16:36:44.925Z,38.40
2018-06-22T16:39:14.946Z,38.60
2018-06-22T16:41:44.220Z,38.50
2018-06-22T16:44:13.270Z,38.50
2018-06-22T16:46:42.358Z,38.50
2018-06-22T16:49:11.427Z,38.70
2018-06-22T16:51:40.683Z,38.70
2018-06-22T16:54:09.767Z,38.10
2018-06-22T16:56:39.160Z,39.00
2018-06-22T16:59:09.327Z,38.60
2018-06-22T17:01:38.457Z,38.70
2018-06-22T17:04:07.520Z,38.90
2018-06-22T17:06:40.853Z,38.90
2018-06-22T17:09:14.343Z,39.00
2018-06-22T17:11:47.609Z,39.10
2018-06-22T17:14:20.816Z,39.10
2018-06-22T17:16:54.184Z,39.30
2018-06-22T17:19:23.949Z,39.10
2018-06-22T17:21:53.151Z,39.00
2018-06-22T17:24:22.211Z,39.10
2018-06-22T17:26:51.380Z,39.20
2018-06-22T17:29:20.510Z,39.10
2018-06-22T17:31:49.652Z,39.30
2018-06-22T17:34:18.757Z,39.30
2018-06-22T17:36:47.869Z,39.30
2018-06-22T17:39:16.907Z,39.30
2018-06-22T17:41:46.039Z,39.40
2018-06-22T17:44:15.260Z,39.40
2018-06-22T17:46:44.274Z,39.40
2018-06-22T17:49:13.542Z,39.40
2018-06-22T17:51:42.622Z,39.40
2018-06-22T17:54:11.800Z,39.50
2018-06-22T17:56:40.857Z,39.50
2018-06-22T17:59:14.077Z,39.50
2018-06-22T18:01:47.283Z,39.60
2018-06-22T18:04:20.519Z,39.60
